Time;durP1;ratioP1;P1;durP2;ratioP2;P2;SDS_P1;SDS_P2;PMS_P1;PMS_P2;Temp;Humidity;BMP_temperature;BMP_pressure;BME280_temperature;BME280_humidity;BME280_pressure;Samples;Min_cycle;Max_cycle;Signal;HPM_P1;HPM_P2
2023/03/20 00:01:19;;;;;;;26.50;23.77;;;11.70;99.90;;;11.14;80.58;101048.63;5055886;28;20209;-72
2023/03/20 00:03:52;;;;;;;28.57;25.47;;;11.60;99.90;;;11.09;80.74;101059.84;5055772;28;20186;-72
2023/03/20 00:06:27;;;;;;;29.73;25.93;;;11.60;99.90;;;11.13;80.41;101055.84;5055485;28;20233;-72
2023/03/20 00:09:01;;;;;;;28.83;24.97;;;11.70;99.90;;;11.14;80.32;101054.00;5055699;28;20214;-72
2023/03/20 00:11:45;;;;;;;24.70;21.67;;;11.70;99.90;;;11.17;79.71;101056.34;5055630;28;20563;-72
2023/03/20 00:14:21;;;;;;;23.60;20.77;;;11.70;99.90;;;11.11;80.33;101057.84;5055610;28;20226;-72
2023/03/20 00:16:55;;;;;;;22.13;19.23;;;11.70;99.90;;;11.12;80.12;101058.69;5055499;28;20220;-72
2023/03/20 00:19:29;;;;;;;21.70;18.70;;;11.60;99.90;;;11.07;79.97;101044.91;5055575;28;20201;-72
2023/03/20 00:22:02;;;;;;;23.27;19.50;;;11.60;99.90;;;11.09;80.12;101059.00;5054525;28;20240;-72
2023/03/20 00:24:34;;;;;;;22.87;20.47;;;11.60;99.90;;;11.01;80.18;101058.94;5055632;28;20226;-72
2023/03/20 00:27:06;;;;;;;22.77;19.13;;;11.60;99.90;;;11.05;79.94;101068.34;5055042;28;20575;-72
2023/03/20 00:29:38;;;;;;;23.00;19.33;;;11.60;99.90;;;10.98;80.34;101061.91;5055396;28;20199;-72
2023/03/20 00:32:16;;;;;;;23.27;19.63;;;11.50;99.90;;;11.04;79.89;101062.13;5055290;28;20194;-72
2023/03/20 00:34:47;;;;;;;24.33;21.17;;;11.60;99.90;;;11.02;79.79;101068.66;5055499;28;20705;-72
2023/03/20 00:37:19;;;;;;;23.43;20.80;;;11.60;99.90;;;10.97;79.64;101070.94;5055159;28;20588;-72
2023/03/20 00:39:51;;;;;;;22.97;20.30;;;11.50;99.90;;;10.93;79.49;101082.94;5054987;28;20560;-72
2023/03/20 00:42:24;;;;;;;23.47;19.57;;;11.50;99.90;;;10.90;79.33;101083.28;5055136;28;20194;-72
2023/03/20 00:45:01;;;;;;;26.10;20.53;;;11.40;99.90;;;10.91;79.02;101093.00;5055218;28;20226;-72
2023/03/20 00:47:37;;;;;;;29.10;22.93;;;11.40;99.90;;;10.89;78.83;101090.47;5054932;28;20194;-72
2023/03/20 00:50:17;;;;;;;30.43;23.80;;;11.40;99.90;;;10.69;79.39;101092.47;5054923;28;20199;-72
2023/03/20 00:52:49;;;;;;;31.73;24.33;;;11.30;99.90;;;10.58;79.72;101095.34;5054857;28;20198;-72
2023/03/20 00:55:23;;;;;;;36.70;25.77;;;11.10;99.90;;;10.51;80.24;101094.25;5054737;28;20226;-72
2023/03/20 00:57:58;;;;;;;36.47;27.57;;;11.10;99.90;;;10.52;80.40;101090.59;5054802;28;20186;-72
2023/03/20 01:00:37;;;;;;;36.80;26.27;;;11.10;99.90;;;10.44;80.57;101085.19;5055013;28;20194;-72
2023/03/20 01:03:17;;;;;;;41.90;28.77;;;11.00;99.90;;;10.44;80.71;101082.50;5054642;28;20190;-72
2023/03/20 01:05:50;;;;;;;50.93;31.63;;;11.00;99.90;;;10.34;81.38;101087.09;5054577;28;20248;-72
2023/03/20 01:08:25;;;;;;;48.43;31.27;;;10.90;99.90;;;10.31;81.85;101084.69;5054166;28;20610;-72
2023/03/20 01:11:00;;;;;;;49.07;32.30;;;10.80;99.90;;;10.32;81.64;101088.19;5054265;28;20194;-72
2023/03/20 01:13:35;;;;;;;51.77;33.40;;;10.90;99.90;;;10.30;81.63;101085.69;5054495;28;20201;-72
2023/03/20 01:16:17;;;;;;;51.30;33.87;;;10.80;99.90;;;10.29;82.26;101091.19;5054061;28;20714;-72
2023/03/20 01:18:51;;;;;;;52.93;33.07;;;10.80;99.90;;;10.26;82.65;101092.34;5054114;28;20182;-72
2023/03/20 01:21:24;;;;;;;54.80;33.80;;;10.80;99.90;;;10.31;81.94;101084.69;5054078;28;20569;-72
2023/03/20 01:23:56;;;;;;;52.87;33.77;;;10.80;99.90;;;10.22;81.96;101079.38;5054231;28;20202;-72
2023/03/20 01:26:34;;;;;;;50.90;31.80;;;10.80;99.90;;;10.23;82.31;101086.44;5053906;28;20190;-72
2023/03/20 01:29:13;;;;;;;48.97;33.53;;;10.80;99.90;;;10.22;82.12;101082.91;5054191;28;20289;-72
2023/03/20 01:31:45;;;;;;;50.53;32.27;;;10.80;99.90;;;10.18;82.44;101092.22;5054441;28;20190;-72
2023/03/20 01:34:20;;;;;;;49.17;32.30;;;10.80;99.90;;;10.10;82.68;101086.75;5053764;28;20706;-72
2023/03/20 01:36:55;;;;;;;50.13;32.70;;;10.70;99.90;;;10.15;82.64;101090.69;5054326;28;20194;-72
2023/03/20 01:39:35;;;;;;;45.20;31.40;;;10.70;99.90;;;10.20;82.67;101092.94;5054079;28;20182;-72
2023/03/20 01:42:08;;;;;;;50.47;33.23;;;10.80;99.90;;;10.11;82.85;101102.66;5054225;28;20193;-72
2023/03/20 01:44:40;;;;;;;51.40;33.27;;;10.70;99.90;;;10.13;82.63;101097.16;5053838;28;20226;-72
2023/03/20 01:47:20;;;;;;;46.80;31.80;;;10.70;99.90;;;10.07;83.14;101100.41;5053570;28;20643;-72
2023/03/20 01:50:26;;;;;;;50.60;32.67;;;10.60;99.90;;;10.12;82.83;101112.38;5053793;28;20221;-72
2023/03/20 01:53:12;;;;;;;47.63;32.47;;;10.60;99.90;;;10.09;83.12;101101.13;5053786;28;20206;-72
2023/03/20 01:55:47;;;;;;;45.40;31.07;;;10.70;99.90;;;10.13;82.50;101107.88;5054486;28;20236;-72
2023/03/20 01:58:23;;;;;;;47.33;30.17;;;10.70;99.90;;;10.07;82.66;101108.44;5053729;28;20190;-72
2023/03/20 02:00:56;;;;;;;43.83;31.03;;;10.60;99.90;;;9.97;83.80;101104.97;5053952;28;20190;-72
2023/03/20 02:03:28;;;;;;;47.67;32.27;;;10.50;99.90;;;9.99;83.51;101098.50;5053896;28;20194;-72
2023/03/20 02:06:01;;;;;;;46.63;29.83;;;10.50;99.90;;;9.96;84.26;101109.50;5053220;28;20287;-72
2023/03/20 02:08:41;;;;;;;47.57;31.37;;;10.50;99.90;;;10.00;83.34;101116.22;5053453;28;20214;-72
2023/03/20 02:11:15;;;;;;;46.63;31.60;;;10.60;99.90;;;9.98;84.12;101110.19;5053526;28;20197;-72
2023/03/20 02:13:49;;;;;;;49.87;31.37;;;10.50;99.90;;;10.00;83.77;101126.09;5053514;28;20194;-72
2023/03/20 02:16:21;;;;;;;48.83;31.47;;;10.60;99.90;;;10.03;83.76;101128.47;5053309;28;20218;-72
2023/03/20 02:18:57;;;;;;;49.60;31.80;;;10.60;99.90;;;10.00;84.13;101128.78;5053099;28;20186;-72
2023/03/20 02:22:20;;;;;;;48.77;31.00;;;10.60;99.90;;;9.95;84.57;101131.03;5054048;28;20590;-72
2023/03/20 02:25:40;;;;;;;48.17;31.07;;;10.50;99.90;;;9.98;84.22;101125.38;5052844;28;20226;-72
2023/03/20 02:28:59;;;;;;;61.33;37.17;;;10.60;99.90;;;9.79;84.67;101138.84;5053003;28;20642;-72
2023/03/20 02:32:11;;;;;;;45.00;27.97;;;10.40;99.90;;;9.69;83.66;101149.56;5030898;28;20569;-72
2023/03/20 02:35:17;;;;;;;38.47;24.60;;;10.30;99.90;;;9.60;83.34;101148.59;5052970;28;20728;-72
2023/03/20 02:38:25;;;;;;;33.73;21.23;;;10.30;99.90;;;9.65;82.01;101157.03;5053252;28;20221;-72
2023/03/20 02:41:06;;;;;;;35.83;21.63;;;10.30;99.90;;;9.72;81.09;101156.44;5038204;28;20208;-72
2023/03/20 02:43:52;;;;;;;30.33;19.60;;;10.30;99.90;;;9.74;80.27;101149.94;5053257;28;20220;-72
2023/03/20 02:46:35;;;;;;;32.20;19.77;;;10.40;99.90;;;9.58;80.00;101153.25;5056947;28;20598;-72
2023/03/20 02:49:18;;;;;;;32.27;20.33;;;10.30;99.90;;;9.55;79.75;101145.50;5057178;28;20237;-72
2023/03/20 02:52:01;;;;;;;30.53;18.90;;;10.20;99.90;;;9.63;79.73;101142.94;5057210;28;20198;-72
2023/03/20 02:54:45;;;;;;;35.83;19.73;;;10.30;99.90;;;9.60;79.88;101137.88;5057155;28;20233;-72
2023/03/20 02:57:30;;;;;;;34.33;19.70;;;10.20;99.90;;;9.58;79.43;101134.53;5057148;28;20195;-72
2023/03/20 03:00:12;;;;;;;31.87;18.73;;;10.20;99.90;;;9.65;78.96;101138.31;5056813;28;20634;-72
2023/03/20 03:02:49;;;;;;;31.97;18.70;;;10.30;99.90;;;9.62;78.25;101135.91;5057273;28;20212;-72
2023/03/20 03:05:30;;;;;;;30.10;18.93;;;10.20;99.90;;;9.63;78.94;101134.94;5057135;28;20221;-72
2023/03/20 03:08:06;;;;;;;31.93;18.87;;;10.20;99.90;;;9.60;78.24;101135.22;5056931;28;20191;-72
2023/03/20 03:10:46;;;;;;;29.27;18.63;;;10.20;99.90;;;9.58;77.83;101134.53;5056832;28;20210;-72
2023/03/20 03:13:27;;;;;;;31.97;19.73;;;10.20;99.90;;;9.61;77.58;101139.59;5056541;28;20701;-72
2023/03/20 03:16:06;;;;;;;28.17;17.23;;;10.20;99.90;;;9.61;77.26;101128.91;5056444;28;20245;-72
2023/03/20 03:18:42;;;;;;;26.53;17.90;;;10.20;99.90;;;9.58;77.13;101128.34;5056441;28;20186;-72
2023/03/20 03:21:18;;;;;;;31.50;17.87;;;10.20;99.90;;;9.47;77.18;101126.66;5056967;28;20190;-72
2023/03/20 03:23:52;;;;;;;29.93;18.47;;;10.10;99.90;;;9.47;77.24;101124.00;5056617;28;20201;-72
2023/03/20 03:26:32;;;;;;;28.40;17.83;;;10.10;99.90;;;9.49;77.15;101119.34;5056582;28;20194;-72
2023/03/20 03:29:11;;;;;;;27.40;17.97;;;10.10;99.90;;;9.48;77.36;101123.03;5056131;28;20674;-72
2023/03/20 03:31:44;;;;;;;29.97;18.67;;;10.10;99.90;;;9.49;77.63;101118.50;5056478;28;20190;-72
2023/03/20 03:34:21;;;;;;;31.37;18.90;;;10.10;99.90;;;9.48;77.19;101116.81;5056072;28;20238;-72
2023/03/20 03:37:01;;;;;;;29.93;19.03;;;10.10;99.90;;;9.44;77.09;101110.06;5056345;28;20209;-72
2023/03/20 03:39:42;;;;;;;28.40;17.87;;;10.00;99.90;;;9.46;76.47;101122.31;5056581;28;20190;-72
2023/03/20 03:42:26;;;;;;;31.03;19.23;;;10.10;99.90;;;9.40;76.36;101116.69;5056007;28;20320;-72
2023/03/20 03:45:06;;;;;;;28.93;18.63;;;10.00;99.90;;;9.40;76.65;101120.22;5056187;28;20226;-72
2023/03/20 03:47:44;;;;;;;28.93;18.27;;;10.00;99.90;;;9.37;76.96;101117.84;5056193;28;20190;-72
2023/03/20 03:50:20;;;;;;;27.27;18.53;;;10.00;99.90;;;9.38;76.82;101124.88;5055817;28;20210;-72
2023/03/20 03:52:58;;;;;;;24.13;17.03;;;10.00;99.90;;;9.32;77.03;101117.41;5056119;28;20190;-72
2023/03/20 03:55:37;;;;;;;29.07;17.47;;;9.90;99.90;;;9.27;77.48;101122.34;5055752;28;20253;-72
2023/03/20 03:58:20;;;;;;;26.87;16.63;;;9.90;99.90;;;9.24;76.70;101117.28;5056000;28;20252;-72
2023/03/20 04:00:57;;;;;;;27.10;17.27;;;9.90;99.90;;;9.18;77.24;101123.19;5055961;28;20190;-72
2023/03/20 04:03:36;;;;;;;25.47;16.70;;;9.80;99.90;;;9.18;77.49;101121.34;5055924;28;20200;-72
2023/03/20 04:06:12;;;;;;;27.23;15.77;;;9.80;99.90;;;9.17;77.77;101121.50;5055776;28;20222;-72
2023/03/20 04:08:45;;;;;;;25.00;16.67;;;9.70;99.90;;;9.18;77.28;101117.84;5055885;28;20194;-71
2023/03/20 04:11:21;;;;;;;26.00;16.23;;;9.80;99.90;;;9.13;77.28;101122.78;5055675;28;20206;-71
2023/03/20 04:13:55;;;;;;;26.27;16.80;;;9.70;99.90;;;9.14;77.15;101119.94;5055630;28;20190;-72
2023/03/20 04:16:28;;;;;;;25.23;16.57;;;9.70;99.90;;;9.15;77.24;101126.13;5055517;28;20221;-72
2023/03/20 04:19:00;;;;;;;25.97;16.63;;;9.70;99.90;;;9.12;76.62;101127.28;5055571;28;20190;-72
2023/03/20 04:21:32;;;;;;;26.87;16.63;;;9.70;99.90;;;9.15;77.00;101121.63;5055250;28;20639;-72
2023/03/20 04:24:04;;;;;;;28.03;16.40;;;9.70;99.90;;;9.09;77.20;101124.03;5055421;28;20194;-72
2023/03/20 04:26:36;;;;;;;26.10;16.77;;;9.70;99.90;;;9.08;77.47;101119.66;5055477;28;20565;-72
2023/03/20 04:29:09;;;;;;;27.83;17.37;;;9.70;99.90;;;9.08;77.67;101122.34;5055342;28;20194;-72
2023/03/20 04:31:41;;;;;;;27.67;16.70;;;9.70;99.90;;;9.07;77.59;101128.69;5055280;28;20197;-72
2023/03/20 04:34:13;;;;;;;30.03;18.03;;;9.70;99.90;;;8.95;77.90;101117.28;5054827;28;20654;-72
2023/03/20 04:36:44;;;;;;;28.90;18.73;;;9.60;99.90;;;8.89;78.89;101112.53;5055148;28;20187;-71
2023/03/20 04:39:16;;;;;;;27.60;18.13;;;9.50;99.90;;;8.87;78.61;101117.16;5055247;28;20219;-72
2023/03/20 04:41:48;;;;;;;36.50;20.87;;;9.50;99.90;;;8.82;79.55;101114.06;5055138;28;20190;-72
2023/03/20 04:44:21;;;;;;;31.03;19.40;;;9.50;99.90;;;8.81;79.67;101117.72;5055056;28;20232;-72
2023/03/20 04:46:53;;;;;;;33.03;20.67;;;9.40;99.90;;;8.81;80.63;101111.53;5055064;28;20197;-72
2023/03/20 04:49:25;;;;;;;32.30;20.43;;;9.40;99.90;;;8.78;80.05;101112.66;5054672;28;20195;-72
2023/03/20 04:51:57;;;;;;;32.37;21.00;;;9.40;99.90;;;8.81;80.83;101117.72;5054981;28;20186;-72
2023/03/20 04:54:30;;;;;;;37.23;21.53;;;9.40;99.90;;;8.80;80.78;101113.34;5054541;28;20230;-72
2023/03/20 04:57:02;;;;;;;31.80;20.33;;;9.40;99.90;;;8.78;80.34;101104.66;5054553;28;20639;-72
2023/03/20 04:59:35;;;;;;;37.80;21.83;;;9.40;99.90;;;8.66;80.71;101108.44;5054503;28;20193;-72
2023/03/20 05:02:07;;;;;;;37.53;21.33;;;9.40;99.90;;;8.70;81.11;101103.66;5054783;28;20217;-72
2023/03/20 05:04:38;;;;;;;35.57;22.37;;;9.40;99.90;;;8.65;80.92;101107.59;5054663;28;20234;-72
2023/03/20 05:07:10;;;;;;;36.27;21.20;;;9.30;99.90;;;8.63;81.81;101104.19;5053984;28;20205;-72
2023/03/20 05:09:42;;;;;;;38.47;22.23;;;9.30;99.90;;;8.58;81.88;101102.94;5054453;28;20194;-72
2023/03/20 05:12:14;;;;;;;38.13;23.17;;;9.30;99.90;;;8.58;82.11;101106.47;5054241;28;20187;-72
2023/03/20 05:14:47;;;;;;;37.23;22.27;;;9.30;99.90;;;8.65;82.07;101102.25;5054568;28;20225;-72
2023/03/20 05:17:19;;;;;;;38.13;23.07;;;9.30;99.90;;;8.57;82.30;101102.09;5054201;28;20654;-72
2023/03/20 05:19:51;;;;;;;36.23;22.07;;;9.30;99.90;;;8.54;82.33;101099.72;5054397;28;20194;-72
2023/03/20 05:22:22;;;;;;;35.53;21.70;;;9.20;99.90;;;8.54;82.37;101096.19;5054328;28;20201;-72
2023/03/20 05:24:54;;;;;;;39.43;21.97;;;9.20;99.90;;;8.49;82.75;101104.59;5054223;28;20226;-72
2023/03/20 05:27:26;;;;;;;38.17;21.13;;;9.20;99.90;;;8.53;82.37;101099.84;5054271;28;20187;-72
2023/03/20 05:29:59;;;;;;;37.23;22.30;;;9.20;99.90;;;8.47;82.68;101103.91;5053839;28;20693;-72
2023/03/20 05:32:31;;;;;;;38.57;22.53;;;9.20;99.90;;;8.54;82.07;101102.38;5054155;28;20194;-72
2023/03/20 05:35:03;;;;;;;38.63;22.67;;;9.20;99.90;;;8.53;82.43;101098.00;5053993;28;20232;-72
2023/03/20 05:37:35;;;;;;;38.90;22.03;;;9.20;99.90;;;8.55;82.85;101096.06;5054092;28;20214;-72
2023/03/20 05:40:11;;;;;;;37.93;22.77;;;9.20;99.90;;;8.54;82.54;101099.72;5053706;28;20194;-72
2023/03/20 05:42:44;;;;;;;36.70;21.70;;;9.20;99.90;;;8.56;82.49;101103.06;5053996;28;20190;-72
2023/03/20 05:45:17;;;;;;;36.57;21.73;;;9.20;99.90;;;8.61;82.65;101106.19;5053934;28;20222;-72
2023/03/20 05:47:49;;;;;;;38.87;23.40;;;9.30;99.90;;;8.63;82.03;101109.53;5053957;28;20201;-72
2023/03/20 05:50:21;;;;;;;41.27;23.27;;;9.30;99.90;;;8.59;82.76;101112.66;5053806;28;20214;-72
2023/03/20 05:52:53;;;;;;;37.70;22.37;;;9.20;99.90;;;8.58;82.46;101111.81;5053849;28;20249;-72
2023/03/20 05:55:25;;;;;;;36.33;23.30;;;9.30;99.90;;;8.60;82.04;101115.16;5053675;28;20229;-72
2023/03/20 05:57:57;;;;;;;37.53;22.73;;;9.30;99.90;;;8.58;82.53;101114.47;5053789;28;20186;-72
2023/03/20 06:00:31;;;;;;;36.07;21.47;;;9.30;99.90;;;8.57;82.42;101114.59;5053718;28;20187;-72
2023/03/20 06:03:03;;;;;;;36.07;22.27;;;9.30;99.90;;;8.58;82.23;101116.28;5053672;28;20186;-72
2023/03/20 06:05:34;;;;;;;37.53;22.17;;;9.30;99.90;;;8.57;82.38;101109.25;5053734;28;20230;-72
2023/03/20 06:08:07;;;;;;;33.67;21.43;;;9.30;99.90;;;8.54;82.07;101114.88;5053603;28;20639;-72
2023/03/20 06:10:39;;;;;;;38.83;22.10;;;9.30;99.90;;;8.55;82.05;101114.75;5053479;28;20210;-72
2023/03/20 06:13:11;;;;;;;41.80;22.87;;;9.20;99.90;;;8.55;82.31;101117.41;5053785;28;20194;-72
2023/03/20 06:15:44;;;;;;;36.17;21.63;;;9.30;99.90;;;8.55;81.93;101122.75;5053177;28;20238;-72
2023/03/20 06:18:16;;;;;;;41.27;22.87;;;9.30;99.90;;;8.57;81.91;101123.44;5053444;28;20192;-72
2023/03/20 06:20:51;;;;;;;36.93;22.80;;;9.30;99.90;;;8.58;82.17;101119.81;5053119;28;20194;-72
2023/03/20 06:23:24;;;;;;;36.77;22.20;;;9.30;99.90;;;8.59;82.31;101118.84;5053401;28;20194;-72
2023/03/20 06:25:55;;;;;;;36.97;22.40;;;9.30;99.90;;;8.63;81.99;101120.22;5053295;28;20226;-72
2023/03/20 06:28:27;;;;;;;36.93;23.03;;;9.30;99.90;;;8.63;82.37;101124.72;5053535;28;20200;-72
2023/03/20 06:31:00;;;;;;;34.60;22.07;;;9.30;99.90;;;8.64;81.72;101127.25;5053150;28;20209;-72
2023/03/20 06:33:32;;;;;;;36.67;22.63;;;9.40;99.90;;;8.63;82.25;101130.03;5053275;28;20285;-72
2023/03/20 06:36:04;;;;;;;39.33;23.03;;;9.40;99.90;;;8.63;81.94;101136.22;5053028;28;20706;-72
2023/03/20 06:38:36;;;;;;;38.70;23.00;;;9.40;99.90;;;8.65;82.06;101139.63;5052793;28;20197;-72
2023/03/20 06:41:09;;;;;;;37.03;23.20;;;9.40;99.90;;;8.69;82.36;101136.69;5053263;28;20194;-72
2023/03/20 06:43:41;;;;;;;36.27;23.30;;;9.40;99.90;;;8.71;82.20;101142.72;5053174;28;20198;-72
2023/03/20 06:46:14;;;;;;;39.67;23.27;;;9.40;99.90;;;8.71;82.16;101145.38;5053084;28;20725;-72
2023/03/20 06:48:47;;;;;;;38.50;23.87;;;9.40;99.90;;;8.72;82.12;101141.72;5053182;28;20214;-72
2023/03/20 06:51:19;;;;;;;42.27;23.83;;;9.40;99.90;;;8.73;82.27;101146.94;5053096;28;20264;-72
2023/03/20 06:53:51;;;;;;;37.70;22.80;;;9.40;99.90;;;8.74;81.61;101143.28;5053146;28;20190;-72
2023/03/20 06:56:23;;;;;;;38.30;23.47;;;9.40;99.90;;;8.77;81.42;101147.50;5053110;28;20190;-72
2023/03/20 06:58:55;;;;;;;40.17;23.50;;;9.40;99.90;;;8.77;81.58;101147.50;5053086;28;20244;-72
2023/03/20 07:01:28;;;;;;;37.60;23.77;;;9.40;99.90;;;8.77;81.85;101153.66;5053047;28;20191;-72
2023/03/20 07:04:00;;;;;;;41.03;23.87;;;9.50;99.90;;;8.76;81.82;101151.16;5052994;28;20201;-72
2023/03/20 07:06:32;;;;;;;42.63;25.03;;;9.50;99.90;;;8.78;81.50;101159.84;5053045;28;20186;-72
2023/03/20 07:09:04;;;;;;;39.70;23.63;;;9.50;99.90;;;8.79;81.65;101156.22;5052967;28;20191;-72
2023/03/20 07:11:36;;;;;;;40.00;24.13;;;9.50;99.90;;;8.80;81.50;101155.25;5052618;28;20206;-72
2023/03/20 07:14:07;;;;;;;38.40;23.73;;;9.50;99.90;;;8.78;80.62;101154.53;5052873;28;20190;-72
2023/03/20 07:16:41;;;;;;;39.30;23.30;;;9.50;99.90;;;8.79;80.78;101161.56;5052598;28;20225;-72
2023/03/20 07:19:12;;;;;;;34.23;21.33;;;9.50;99.90;;;8.80;79.95;101165.91;5052854;28;20198;-72
2023/03/20 07:21:45;;;;;;;34.80;21.47;;;9.50;99.90;;;8.78;80.04;101162.53;5052882;28;20190;-72
2023/03/20 07:24:20;;;;;;;36.30;21.83;;;9.50;99.90;;;8.79;80.41;101161.56;5052796;28;20249;-72
2023/03/20 07:26:52;;;;;;;30.17;20.73;;;9.50;99.90;;;8.81;79.25;101154.25;5053046;28;20646;-72
2023/03/20 07:29:24;;;;;;;32.00;20.53;;;9.50;99.90;;;8.83;79.46;101162.97;5052441;28;20190;-72
2023/03/20 07:31:59;;;;;;;33.63;21.07;;;9.60;99.90;;;8.87;79.24;101148.38;5055945;28;20210;-72
2023/03/20 07:34:31;;;;;;;32.67;19.57;;;9.60;99.90;;;8.88;78.81;101155.38;5057083;28;20279;-72
2023/03/20 07:37:03;;;;;;;31.67;20.37;;;9.60;99.90;;;8.89;78.25;101157.06;5056410;28;20194;-72
2023/03/20 07:39:35;;;;;;;30.83;20.93;;;9.60;99.90;;;8.91;78.90;101155.09;5056380;28;20190;-72
2023/03/20 07:42:07;;;;;;;29.37;19.90;;;9.60;99.90;;;8.92;78.20;101167.47;5056321;28;20194;-72
2023/03/20 07:44:40;;;;;;;29.90;19.57;;;9.60;99.90;;;8.93;78.72;101169.16;5055871;28;20620;-72
2023/03/20 07:47:13;;;;;;;29.17;19.03;;;9.70;99.90;;;8.95;78.79;101168.03;5055920;28;20191;-72
2023/03/20 07:49:45;;;;;;;29.33;18.23;;;9.60;99.90;;;8.97;78.50;101171.41;5056177;28;20198;-72
2023/03/20 07:52:17;;;;;;;27.63;17.87;;;9.70;99.90;;;8.98;77.88;101172.25;5055746;28;20210;-72
2023/03/20 07:54:49;;;;;;;25.97;16.87;;;9.70;99.90;;;8.99;77.33;101171.28;5056030;28;20238;-72
2023/03/20 07:57:21;;;;;;;24.47;16.73;;;9.70;99.90;;;9.02;77.99;101174.50;5056336;28;20195;-72
2023/03/20 07:59:53;;;;;;;29.37;19.13;;;9.70;99.90;;;9.03;78.25;101162.84;5055989;28;20193;-72
2023/03/20 08:02:26;;;;;;;24.90;17.13;;;9.80;99.90;;;9.03;76.73;101170.00;5055924;28;20191;-72
2023/03/20 08:04:58;;;;;;;25.00;15.87;;;9.70;99.90;;;9.05;76.97;101168.03;5056543;28;20272;-72
2023/03/20 08:07:30;;;;;;;26.03;16.27;;;9.80;99.90;;;9.06;75.93;101169.72;5056681;28;20257;-72
2023/03/20 08:10:02;;;;;;;23.80;15.17;;;9.70;99.90;;;9.07;75.77;101171.44;5055807;28;20195;-72
2023/03/20 08:12:33;;;;;;;25.03;15.00;;;9.80;99.70;;;9.13;75.91;101174.38;5055680;28;20222;-72
2023/03/20 08:15:06;;;;;;;23.07;16.77;;;9.80;99.90;;;9.18;76.21;101171.25;5056020;28;20232;-72
2023/03/20 08:17:41;;;;;;;23.13;16.50;;;9.90;99.90;;;9.23;76.13;101176.19;5054402;28;20198;-72
2023/03/20 08:20:18;;;;;;;24.60;17.40;;;9.90;99.90;;;9.22;75.79;101182.50;5054428;28;20217;-64
2023/03/20 08:22:50;;;;;;;24.70;17.43;;;9.90;99.80;;;9.19;75.97;101180.97;5054249;28;20186;-73
2023/03/20 08:25:22;;;;;;;25.27;17.20;;;9.90;99.60;;;9.19;75.66;101180.97;5055474;28;20225;-73
2023/03/20 08:27:54;;;;;;;22.67;16.43;;;9.90;99.60;;;9.17;75.98;101174.94;5055354;28;20244;-73
2023/03/20 08:30:26;;;;;;;23.93;16.87;;;9.80;99.70;;;9.14;75.60;101177.91;5055137;28;20205;-72
2023/03/20 08:32:59;;;;;;;26.23;17.77;;;9.90;99.70;;;9.16;75.95;101186.59;5054827;28;20210;-72
2023/03/20 08:35:31;;;;;;;26.10;16.97;;;9.90;99.80;;;9.19;76.05;101194.34;5054604;28;20280;-72
2023/03/20 08:38:05;;;;;;;23.37;16.53;;;9.90;99.90;;;9.19;75.53;101194.34;5055199;28;20289;-72
2023/03/20 08:40:39;;;;;;;23.03;16.43;;;9.90;99.90;;;9.15;75.52;101187.56;5055411;28;20210;-71
2023/03/20 08:43:11;;;;;;;22.67;16.17;;;9.80;99.50;;;9.14;75.49;101183.25;5053679;28;20196;-72
2023/03/20 08:45:45;;;;;;;23.43;15.87;;;9.80;99.50;;;9.16;75.27;101190.13;5055087;28;20237;-71
2023/03/20 08:48:18;;;;;;;23.33;15.40;;;9.90;99.60;;;9.19;76.21;101191.66;5055094;28;20277;-71
2023/03/20 08:50:50;;;;;;;20.43;15.47;;;9.90;99.80;;;9.24;75.55;101189.44;5054760;28;20631;-71
2023/03/20 08:53:23;;;;;;;22.43;15.97;;;9.90;99.50;;;9.26;75.26;101195.47;5055190;28;20207;-71
2023/03/20 08:55:57;;;;;;;23.70;16.10;;;9.90;99.50;;;9.23;75.20;101193.06;5054860;28;20226;-71
2023/03/20 08:58:30;;;;;;;21.87;15.10;;;9.90;99.40;;;9.21;75.37;101195.06;5054834;28;20194;-71
2023/03/20 09:01:05;;;;;;;21.20;14.73;;;9.90;99.40;;;9.19;74.73;101202.34;5054847;28;20205;-71
2023/03/20 09:03:38;;;;;;;19.57;14.90;;;9.90;99.20;;;9.19;74.85;101194.34;5054468;28;20631;-71
2023/03/20 09:06:12;;;;;;;20.37;15.33;;;9.90;99.20;;;9.21;75.02;101195.06;5054686;28;20233;-71
2023/03/20 09:08:44;;;;;;;23.13;16.17;;;9.90;99.30;;;9.24;75.64;101200.13;5054711;28;20190;-71
2023/03/20 09:11:15;;;;;;;21.93;15.90;;;9.90;99.60;;;9.22;75.04;101198.53;5054624;28;20209;-72
2023/03/20 09:13:47;;;;;;;22.90;16.13;;;9.90;99.30;;;9.20;75.40;101193.34;5054237;28;20214;-71
2023/03/20 09:16:19;;;;;;;21.43;15.33;;;9.90;99.40;;;9.21;75.59;101199.56;5054354;28;20238;-71
2023/03/20 09:18:54;;;;;;;22.10;15.87;;;9.90;99.30;;;9.18;75.06;101208.66;5054534;28;20534;-71
2023/03/20 09:21:25;;;;;;;21.03;15.10;;;9.90;99.10;;;9.20;74.57;101204.03;5054184;28;20189;-71
2023/03/20 09:23:57;;;;;;;20.70;15.43;;;9.90;99.30;;;9.16;74.61;101207.97;5054379;28;20187;-71
2023/03/20 09:26:29;;;;;;;19.20;14.33;;;9.90;99.20;;;9.13;74.04;101214.44;5054075;28;20617;-71
2023/03/20 09:29:01;;;;;;;21.20;16.03;;;9.80;98.90;;;9.14;74.16;101209.94;5054331;28;20254;-71
2023/03/20 09:31:33;;;;;;;20.50;16.03;;;9.90;98.90;;;9.18;73.84;101206.00;5054256;28;20194;-71
2023/03/20 09:34:07;;;;;;;18.77;14.33;;;9.90;99.00;;;9.20;74.21;101209.38;5054041;28;20304;-71
2023/03/20 09:36:39;;;;;;;17.60;13.40;;;9.90;98.90;;;9.26;75.14;101214.16;5054199;28;20195;-72
2023/03/20 09:39:10;;;;;;;18.43;13.63;;;9.90;99.20;;;9.30;74.28;101206.72;5054160;28;20207;-71
2023/03/20 09:41:50;;;;;;;17.67;14.17;;;10.00;98.90;;;9.36;73.79;101212.34;5054051;28;20605;-71
2023/03/20 09:44:54;;;;;;;17.17;14.00;;;10.00;98.70;;;9.37;73.12;101211.34;5053963;28;20341;-71
2023/03/20 09:47:33;;;;;;;17.67;13.07;;;10.10;98.40;;;9.33;73.22;101215.28;5053630;28;20534;-72
2023/03/20 09:50:30;;;;;;;18.83;13.70;;;10.00;98.40;;;9.33;72.98;101215.28;5053962;28;20209;-71
2023/03/20 09:53:08;;;;;;;18.07;12.93;;;10.00;98.30;;;9.35;73.30;101202.63;5053288;28;20553;-71
2023/03/20 09:55:43;;;;;;;18.33;13.53;;;10.00;98.40;;;9.37;72.88;101213.19;5053677;28;20740;-72
2023/03/20 09:58:22;;;;;;;19.67;14.30;;;10.10;98.60;;;9.36;73.30;101220.34;5053543;28;20690;-71
2023/03/20 10:00:58;;;;;;;18.30;14.43;;;10.00;98.40;;;9.38;73.72;101215.72;5053402;28;20665;-71
2023/03/20 10:03:39;;;;;;;17.83;14.20;;;10.10;98.60;;;9.42;73.37;101225.13;5054305;28;20194;-71
2023/03/20 10:06:17;;;;;;;17.33;13.47;;;10.10;98.40;;;9.41;72.60;101220.78;5053602;28;20237;-71
2023/03/20 10:08:50;;;;;;;21.07;15.47;;;10.10;98.20;;;9.43;73.53;101225.97;5053525;28;20255;-71
2023/03/20 10:12:02;;;;;;;19.00;14.00;;;10.10;98.40;;;9.40;72.39;101218.25;5053624;28;20285;-71
2023/03/20 10:14:43;;;;;;;19.27;14.43;;;10.10;98.00;;;9.43;72.50;101217.94;5053492;28;20233;-73
2023/03/20 10:17:37;;;;;;;20.43;15.40;;;10.10;98.00;;;9.40;73.20;101219.09;5053546;28;20198;-72
2023/03/20 10:20:23;;;;;;;19.97;15.40;;;10.10;98.50;;;9.40;72.41;101219.09;5054069;28;20201;-72
2023/03/20 10:23:05;;;;;;;20.00;15.33;;;10.10;98.00;;;9.41;72.24;101215.44;5053169;28;20532;-73
2023/03/20 10:25:43;;;;;;;18.57;14.43;;;10.10;97.90;;;9.47;72.49;101212.19;5053116;28;20709;-73
2023/03/20 10:28:21;;;;;;;20.77;15.13;;;10.10;98.10;;;9.49;71.87;101220.91;5053457;28;20194;-73
2023/03/20 10:31:06;;;;;;;21.53;14.47;;;10.20;97.70;;;9.50;70.89;101216.41;5053214;28;20558;-72
2023/03/20 10:33:54;;;;;;;13.90;11.40;;;10.20;97.60;;;9.49;70.12;101210.22;5052997;28;20212;-73
2023/03/20 10:36:51;;;;;;;17.30;12.40;;;10.20;96.70;;;9.47;69.77;101217.53;5053274;28;20605;-72
2023/03/20 10:39:45;;;;;;;16.03;12.47;;;10.20;96.50;;;9.43;69.44;101216.13;5053326;28;20195;-73
2023/03/20 10:42:24;;;;;;;16.03;13.03;;;10.20;96.50;;;9.47;70.13;101212.19;5054128;28;20518;-73
2023/03/20 10:45:02;;;;;;;16.07;12.03;;;10.20;96.90;;;9.49;70.13;101223.56;5053178;28;20231;-72